createdAt,value
2023-05-25T00:01:01.745Z,97451.41
2023-05-25T00:06:05.637Z,97449.00
2023-05-25T00:11:07.400Z,97455.31
2023-05-25T00:16:09.206Z,97461.03
2023-05-25T00:21:11.887Z,97464.66
2023-05-25T00:26:14.091Z,97469.91
2023-05-25T00:31:15.908Z,97471.25
2023-05-25T00:36:18.094Z,97465.50
2023-05-25T00:41:20.926Z,97469.88
2023-05-25T00:46:23.647Z,97467.41
2023-05-25T00:51:27.153Z,97464.63
2023-05-25T00:56:32.550Z,97461.88
2023-05-25T01:01:40.731Z,97459.16
2023-05-25T01:06:47.936Z,97461.91
2023-05-25T01:11:51.610Z,97457.50
2023-05-25T01:16:55.222Z,97459.19
2023-05-25T01:22:20.098Z,97453.41
2023-05-25T01:27:30.709Z,97458.09
2023-05-25T01:32:35.323Z,97457.00
2023-05-25T01:37:39.707Z,97462.25
2023-05-25T01:42:42.352Z,97461.16
2023-05-25T01:48:16.030Z,97464.16
2023-05-25T01:53:36.829Z,97475.19
2023-05-25T01:58:50.783Z,97476.56
2023-05-25T02:03:53.294Z,97470.78
2023-05-25T02:08:55.120Z,97476.00
2023-05-25T02:13:56.936Z,97475.72
2023-05-25T02:18:58.718Z,97466.91
2023-05-25T02:24:00.723Z,97471.91
2023-05-25T02:29:03.396Z,97471.31
2023-05-25T02:34:05.174Z,97443.03
2023-05-25T02:39:06.980Z,97441.94
2023-05-25T02:44:08.861Z,97437.00
2023-05-25T02:49:10.817Z,97432.06
2023-05-25T02:54:12.907Z,97444.97
2023-05-25T02:59:14.797Z,97444.69
2023-05-25T03:04:16.657Z,97453.19
2023-05-25T03:09:18.543Z,97451.25
2023-05-25T03:14:22.793Z,97466.94
2023-05-25T03:19:32.352Z,97468.03
2023-05-25T03:24:34.597Z,97467.75
2023-05-25T03:29:38.400Z,97473.50
2023-05-25T03:34:40.854Z,97474.63
2023-05-25T03:39:44.844Z,97477.38
2023-05-25T03:44:46.723Z,97476.25
2023-05-25T03:49:48.544Z,97478.19
2023-05-25T03:54:50.629Z,97473.53
2023-05-25T03:59:52.361Z,97480.41
2023-05-25T04:04:54.285Z,97486.16
2023-05-25T04:09:59.517Z,97485.59
2023-05-25T04:15:03.567Z,97483.41
2023-05-25T04:20:09.031Z,97483.97
2023-05-25T04:25:11.618Z,97493.84
2023-05-25T04:30:13.618Z,97493.28
2023-05-25T04:35:26.832Z,97495.53
2023-05-25T04:40:28.930Z,97496.06
2023-05-25T04:45:33.200Z,97494.44
2023-05-25T04:50:37.575Z,97508.44
2023-05-25T04:55:40.056Z,97511.19
2023-05-25T05:00:42.261Z,97519.69
2023-05-25T05:05:45.253Z,97513.09
2023-05-25T05:10:52.202Z,97512.53
2023-05-25T05:15:54.128Z,97508.16
2023-05-25T05:20:56.684Z,97513.09
2023-05-25T05:25:59.495Z,97518.56
2023-05-25T05:31:01.654Z,97521.84
2023-05-25T05:36:04.795Z,97528.16
2023-05-25T05:41:13.488Z,97535.84
2023-05-25T05:46:16.805Z,97542.69
2023-05-25T05:51:18.983Z,97544.81
2023-05-25T05:56:21.775Z,97538.69
2023-05-25T06:01:24.052Z,97549.69
2023-05-25T06:06:27.571Z,97547.38
2023-05-25T06:11:31.662Z,97531.81
2023-05-25T06:16:33.825Z,97530.94
2023-05-25T06:21:36.970Z,97537.41
2023-05-25T06:26:38.655Z,97535.34
2023-05-25T06:31:40.638Z,97523.72
2023-05-25T06:36:42.524Z,97539.53
2023-05-25T06:41:45.272Z,97540.53
2023-05-25T06:46:51.052Z,97549.34
2023-05-25T06:51:52.779Z,97546.75
2023-05-25T06:56:54.743Z,97558.69
2023-05-25T07:01:56.581Z,97543.38
2023-05-25T07:06:58.645Z,97550.78
2023-05-25T07:12:01.143Z,97547.38
2023-05-25T07:17:03.026Z,97546.38
2023-05-25T07:22:05.358Z,97553.19
2023-05-25T07:27:08.207Z,97543.25
2023-05-25T07:32:09.889Z,97544.81
2023-05-25T07:37:11.763Z,97557.47
2023-05-25T07:42:14.019Z,97562.16
2023-05-25T07:47:16.137Z,97564.03
2023-05-25T07:52:18.992Z,97570.03
2023-05-25T07:57:20.875Z,97576.44
2023-05-25T08:02:22.982Z,97572.78
2023-05-25T08:07:25.572Z,97579.75
2023-05-25T08:12:43.031Z,97582.28
2023-05-25T08:17:50.977Z,97589.50
2023-05-25T08:22:53.718Z,97579.56
2023-05-25T08:27:56.022Z,97580.03
2023-05-25T08:32:57.775Z,97582.59
2023-05-25T08:37:59.513Z,97589.56
2023-05-25T08:43:01.579Z,97591.13
2023-05-25T08:48:09.477Z,97594.66
2023-05-25T08:53:13.538Z,97589.78
2023-05-25T08:58:22.151Z,97596.53
2023-05-25T09:03:24.700Z,97596.13
2023-05-25T09:08:27.274Z,97594.19
2023-05-25T09:13:29.446Z,97586.16
2023-05-25T09:18:31.320Z,97589.44
2023-05-25T09:23:35.500Z,97590.75
2023-05-25T09:28:45.674Z,97582.34
2023-05-25T09:33:47.605Z,97578.09
2023-05-25T09:38:49.704Z,97584.28
2023-05-25T09:44:02.040Z,97592.78
2023-05-25T09:49:09.324Z,97604.22
2023-05-25T09:54:11.500Z,97599.84
2023-05-25T09:59:13.230Z,97592.03
2023-05-25T10:04:16.423Z,97597.13
2023-05-25T10:09:19.573Z,97598.44
2023-05-25T10:14:28.049Z,97599.84
2023-05-25T10:19:57.296Z,97597.31
2023-05-25T10:25:14.245Z,97599.34
2023-05-25T10:30:17.224Z,97606.06
2023-05-25T10:35:19.347Z,97600.25
2023-05-25T10:40:22.867Z,97599.84
2023-05-25T10:45:24.981Z,97596.81
2023-05-25T10:50:28.754Z,97589.28
2023-05-25T10:55:43.415Z,97591.38
2023-05-25T11:01:12.218Z,97592.81
2023-05-25T11:06:15.906Z,97596.44
2023-05-25T11:11:18.959Z,97582.38
2023-05-25T11:16:37.708Z,97574.59
2023-05-25T11:21:44.050Z,97570.56
2023-05-25T11:26:57.880Z,97569.44
2023-05-25T11:32:00.680Z,97573.69
2023-05-25T11:37:02.544Z,97563.53
2023-05-25T11:42:07.199Z,97564.03
2023-05-25T11:47:13.394Z,97549.44
2023-05-25T11:52:17.291Z,97547.41
2023-05-25T11:57:22.549Z,97545.78
2023-05-25T12:02:24.508Z,97544.91
2023-05-25T12:07:31.298Z,97537.34
2023-05-25T12:12:42.304Z,97545.34
2023-05-25T12:17:45.449Z,97542.63
2023-05-25T12:22:47.865Z,97544.72
2023-05-25T12:27:49.741Z,97544.22
2023-05-25T12:33:00.949Z,97539.41
2023-05-25T12:38:12.056Z,97526.69
2023-05-25T12:43:15.297Z,97528.69
2023-05-25T12:48:26.248Z,97530.47
2023-05-25T12:53:29.026Z,97526.66
2023-05-25T12:58:30.936Z,97536.88
2023-05-25T13:03:33.100Z,97533.91
2023-05-25T13:08:35.015Z,97543.13
2023-05-25T13:13:37.373Z,97530.34
2023-05-25T13:18:39.222Z,97528.41
2023-05-25T13:23:41.005Z,97520.69
2023-05-25T13:28:42.776Z,97511.97
2023-05-25T13:33:44.448Z,97518.31
2023-05-25T13:38:46.624Z,97519.38
2023-05-25T13:43:48.834Z,97522.06
2023-05-25T13:48:50.604Z,97508.16
2023-05-25T13:53:53.555Z,97510.06
2023-05-25T13:58:56.528Z,97514.13
2023-05-25T14:03:59.871Z,97510.47
2023-05-25T14:09:01.761Z,97511.69
2023-05-25T14:14:09.594Z,97495.50
2023-05-25T14:19:18.416Z,97497.66
2023-05-25T14:24:20.353Z,97497.41
2023-05-25T14:29:22.043Z,97517.06
2023-05-25T14:34:24.094Z,97505.16
2023-05-25T14:39:26.577Z,97503.03
2023-05-25T14:44:28.516Z,97498.19
2023-05-25T14:49:30.351Z,97485.34
2023-05-25T14:54:32.018Z,97495.94
2023-05-25T14:59:33.860Z,97484.13
2023-05-25T15:04:35.618Z,97497.41
2023-05-25T15:09:37.437Z,97499.44
2023-05-25T15:14:40.815Z,97493.59
2023-05-25T15:19:42.564Z,97489.41
2023-05-25T15:24:44.540Z,97481.78
2023-05-25T15:29:47.056Z,97488.00
2023-05-25T15:34:49.118Z,97482.63
2023-05-25T15:39:51.164Z,97479.00
2023-05-25T15:44:53.414Z,97477.38
2023-05-25T15:49:55.227Z,97479.41
2023-05-25T15:54:57.189Z,97473.31
2023-05-25T15:59:59.035Z,97483.13
2023-05-25T16:05:00.836Z,97469.72
2023-05-25T16:10:03.110Z,97483.34
2023-05-25T16:15:05.352Z,97475.03
2023-05-25T16:20:08.024Z,97477.19
2023-05-25T16:25:10.701Z,97478.16
2023-05-25T16:30:13.526Z,97478.50
2023-05-25T16:35:16.070Z,97480.63
2023-05-25T16:40:17.822Z,97484.75
2023-05-25T16:45:21.012Z,97479.16
2023-05-25T16:50:22.831Z,97477.16
2023-05-25T16:55:24.973Z,97485.63
2023-05-25T17:00:26.739Z,97480.47
2023-05-25T17:05:28.452Z,97483.94
2023-05-25T17:10:30.149Z,97493.00
2023-05-25T17:15:31.979Z,97492.06
2023-05-25T17:20:33.857Z,97491.13
2023-05-25T17:25:35.755Z,97498.09
2023-05-25T17:30:37.641Z,97495.88
2023-05-25T17:35:39.323Z,97492.50
2023-05-25T17:40:41.159Z,97484.47
2023-05-25T17:45:43.087Z,97493.03
2023-05-25T17:50:45.357Z,97498.81
2023-05-25T17:55:47.167Z,97495.06
2023-05-25T18:00:49.152Z,97499.72
2023-05-25T18:05:51.469Z,97500.44
2023-05-25T18:10:53.266Z,97499.81
2023-05-25T18:15:55.430Z,97505.47
2023-05-25T18:20:57.262Z,97508.63
2023-05-25T18:25:59.155Z,97515.91
2023-05-25T18:31:00.978Z,97522.91
2023-05-25T18:36:02.820Z,97519.53
2023-05-25T18:41:04.602Z,97527.31
2023-05-25T18:46:06.945Z,97527.41
2023-05-25T18:51:08.848Z,97538.81
2023-05-25T18:56:11.027Z,97526.63
2023-05-25T19:01:12.970Z,97541.22
2023-05-25T19:06:14.900Z,97542.59
2023-05-25T19:11:20.038Z,97553.00
2023-05-25T19:16:25.733Z,97550.88
2023-05-25T19:21:37.298Z,97568.25
2023-05-25T19:26:49.967Z,97566.78
2023-05-25T19:31:53.511Z,97563.06
2023-05-25T19:37:10.173Z,97577.53
2023-05-25T19:42:14.387Z,97579.53
2023-05-25T19:47:16.386Z,97582.97
2023-05-25T19:52:18.411Z,97579.41
2023-05-25T19:57:22.019Z,97592.47
2023-05-25T20:02:23.841Z,97598.78
2023-05-25T20:07:25.655Z,97603.06
2023-05-25T20:12:27.387Z,97607.41
2023-05-25T20:17:29.861Z,97598.03
2023-05-25T20:22:32.989Z,97607.34
2023-05-25T20:27:35.087Z,97612.50
2023-05-25T20:32:37.097Z,97610.41
2023-05-25T20:37:39.675Z,97612.75
2023-05-25T20:42:41.607Z,97614.88
2023-05-25T20:47:43.928Z,97624.53
2023-05-25T20:52:45.695Z,97615.16
2023-05-25T20:57:47.466Z,97619.84
2023-05-25T21:02:49.464Z,97621.97
2023-05-25T21:07:51.826Z,97630.00
2023-05-25T21:12:53.535Z,97619.28
2023-05-25T21:17:55.839Z,97628.28
2023-05-25T21:22:57.734Z,97628.31
2023-05-25T21:27:59.467Z,97636.97
2023-05-25T21:33:01.634Z,97634.34
2023-05-25T21:38:03.898Z,97638.16
2023-05-25T21:43:06.543Z,97642.03
2023-05-25T21:48:08.617Z,97637.25
2023-05-25T21:53:10.961Z,97635.69
2023-05-25T21:58:14.252Z,97645.66
2023-05-25T22:03:16.793Z,97656.97
2023-05-25T22:08:18.571Z,97657.38
2023-05-25T22:13:21.214Z,97664.94
2023-05-25T22:18:22.983Z,97653.34
2023-05-25T22:23:26.473Z,97652.25
2023-05-25T22:28:28.613Z,97656.28
2023-05-25T22:33:30.620Z,97659.69
2023-05-25T22:38:32.843Z,97667.06
2023-05-25T22:43:34.624Z,97667.63
2023-05-25T22:48:36.389Z,97669.84
2023-05-25T22:53:38.156Z,97666.84
2023-05-25T22:58:39.905Z,97659.78
2023-05-25T23:03:41.922Z,97665.28
2023-05-25T23:08:44.095Z,97662.00
2023-05-25T23:13:45.821Z,97665.94
2023-05-25T23:18:47.989Z,97665.91
2023-05-25T23:23:49.724Z,97671.34
2023-05-25T23:28:51.591Z,97671.34
2023-05-25T23:33:53.392Z,97668.03
2023-05-25T23:38:55.182Z,97669.38
2023-05-25T23:43:57.668Z,97673.19
2023-05-25T23:48:59.601Z,97671.34
2023-05-25T23:54:01.361Z,97671.84
2023-05-25T23:59:04.110Z,97665.28
